sensor_id;sensor_type;location;lat;lon;timestamp;P1;durP1;ratioP1;P2;durP2;ratioP2
7029;SDS011;3556;53.500;10.176;2022-12-18T00:02:16;47.83;;;21.50;;
7029;SDS011;3556;53.500;10.176;2022-12-18T00:04:42;42.07;;;21.03;;
7029;SDS011;3556;53.500;10.176;2022-12-18T00:07:07;48.63;;;20.60;;
7029;SDS011;3556;53.500;10.176;2022-12-18T00:09:33;40.30;;;20.20;;
7029;SDS011;3556;53.500;10.176;2022-12-18T00:11:59;38.13;;;18.20;;
7029;SDS011;3556;53.500;10.176;2022-12-18T00:14:24;39.40;;;19.10;;
7029;SDS011;3556;53.500;10.176;2022-12-18T00:16:50;41.67;;;19.70;;
7029;SDS011;3556;53.500;10.176;2022-12-18T00:19:16;41.17;;;20.27;;
7029;SDS011;3556;53.500;10.176;2022-12-18T00:21:42;42.53;;;18.63;;
7029;SDS011;3556;53.500;10.176;2022-12-18T00:24:08;35.30;;;17.90;;
7029;SDS011;3556;53.500;10.176;2022-12-18T00:26:35;40.40;;;18.47;;
7029;SDS011;3556;53.500;10.176;2022-12-18T00:29:20;35.43;;;17.93;;
7029;SDS011;3556;53.500;10.176;2022-12-18T00:31:46;38.80;;;18.37;;
7029;SDS011;3556;53.500;10.176;2022-12-18T00:34:12;39.17;;;18.40;;
7029;SDS011;3556;53.500;10.176;2022-12-18T00:36:38;35.17;;;17.63;;
7029;SDS011;3556;53.500;10.176;2022-12-18T00:39:04;37.50;;;18.60;;
7029;SDS011;3556;53.500;10.176;2022-12-18T00:41:30;39.73;;;18.60;;
7029;SDS011;3556;53.500;10.176;2022-12-18T00:44:16;34.90;;;17.50;;
7029;SDS011;3556;53.500;10.176;2022-12-18T00:46:43;43.60;;;20.27;;
7029;SDS011;3556;53.500;10.176;2022-12-18T00:49:09;49.53;;;19.30;;
7029;SDS011;3556;53.500;10.176;2022-12-18T00:51:38;39.73;;;19.83;;
7029;SDS011;3556;53.500;10.176;2022-12-18T00:54:04;42.10;;;18.60;;
7029;SDS011;3556;53.500;10.176;2022-12-18T00:56:30;36.80;;;17.63;;
7029;SDS011;3556;53.500;10.176;2022-12-18T00:58:56;36.90;;;18.10;;
7029;SDS011;3556;53.500;10.176;2022-12-18T01:01:21;37.63;;;17.67;;
7029;SDS011;3556;53.500;10.176;2022-12-18T01:03:47;34.47;;;17.07;;
7029;SDS011;3556;53.500;10.176;2022-12-18T01:06:14;40.53;;;17.70;;
7029;SDS011;3556;53.500;10.176;2022-12-18T01:08:40;41.37;;;17.50;;
7029;SDS011;3556;53.500;10.176;2022-12-18T01:11:13;35.03;;;16.67;;
7029;SDS011;3556;53.500;10.176;2022-12-18T01:13:41;33.57;;;17.20;;
7029;SDS011;3556;53.500;10.176;2022-12-18T01:16:07;31.60;;;16.07;;
7029;SDS011;3556;53.500;10.176;2022-12-18T01:18:33;45.10;;;17.50;;
7029;SDS011;3556;53.500;10.176;2022-12-18T01:21:00;35.53;;;17.03;;
7029;SDS011;3556;53.500;10.176;2022-12-18T01:23:28;38.17;;;16.90;;
7029;SDS011;3556;53.500;10.176;2022-12-18T01:25:54;45.20;;;17.90;;
7029;SDS011;3556;53.500;10.176;2022-12-18T01:28:19;37.87;;;17.17;;
7029;SDS011;3556;53.500;10.176;2022-12-18T01:30:45;37.27;;;16.27;;
7029;SDS011;3556;53.500;10.176;2022-12-18T01:33:10;34.23;;;16.60;;
7029;SDS011;3556;53.500;10.176;2022-12-18T01:35:40;32.27;;;15.90;;
7029;SDS011;3556;53.500;10.176;2022-12-18T01:38:06;39.17;;;17.20;;
7029;SDS011;3556;53.500;10.176;2022-12-18T01:40:33;35.63;;;16.40;;
7029;SDS011;3556;53.500;10.176;2022-12-18T01:42:58;32.30;;;16.47;;
7029;SDS011;3556;53.500;10.176;2022-12-18T01:45:26;39.47;;;15.47;;
7029;SDS011;3556;53.500;10.176;2022-12-18T01:47:54;31.30;;;15.30;;
7029;SDS011;3556;53.500;10.176;2022-12-18T01:50:32;31.50;;;15.90;;
7029;SDS011;3556;53.500;10.176;2022-12-18T01:53:04;27.83;;;15.07;;
7029;SDS011;3556;53.500;10.176;2022-12-18T01:55:38;33.13;;;15.70;;
7029;SDS011;3556;53.500;10.176;2022-12-18T01:58:09;32.33;;;15.23;;
7029;SDS011;3556;53.500;10.176;2022-12-18T02:00:35;32.40;;;15.87;;
7029;SDS011;3556;53.500;10.176;2022-12-18T02:03:00;32.57;;;14.80;;
7029;SDS011;3556;53.500;10.176;2022-12-18T02:08:10;31.63;;;14.30;;
7029;SDS011;3556;53.500;10.176;2022-12-18T02:11:07;29.53;;;14.90;;
7029;SDS011;3556;53.500;10.176;2022-12-18T02:16:24;36.63;;;16.10;;
7029;SDS011;3556;53.500;10.176;2022-12-18T02:18:57;31.27;;;14.20;;
7029;SDS011;3556;53.500;10.176;2022-12-18T02:21:31;32.87;;;14.97;;
7029;SDS011;3556;53.500;10.176;2022-12-18T02:24:17;30.10;;;14.00;;
7029;SDS011;3556;53.500;10.176;2022-12-18T02:27:04;30.60;;;14.90;;
7029;SDS011;3556;53.500;10.176;2022-12-18T02:29:37;28.20;;;14.40;;
7029;SDS011;3556;53.500;10.176;2022-12-18T02:32:08;29.73;;;14.57;;
7029;SDS011;3556;53.500;10.176;2022-12-18T02:34:39;28.70;;;14.60;;
7029;SDS011;3556;53.500;10.176;2022-12-18T02:37:09;32.40;;;15.10;;
7029;SDS011;3556;53.500;10.176;2022-12-18T02:39:40;29.20;;;14.87;;
7029;SDS011;3556;53.500;10.176;2022-12-18T02:42:08;31.83;;;14.63;;
7029;SDS011;3556;53.500;10.176;2022-12-18T02:44:35;28.30;;;14.27;;
7029;SDS011;3556;53.500;10.176;2022-12-18T02:47:12;27.53;;;14.83;;
7029;SDS011;3556;53.500;10.176;2022-12-18T02:59:08;28.13;;;12.97;;
7029;SDS011;3556;53.500;10.176;2022-12-18T03:01:20;31.70;;;13.20;;
7029;SDS011;3556;53.500;10.176;2022-12-18T03:03:55;29.90;;;13.90;;
7029;SDS011;3556;53.500;10.176;2022-12-18T03:09:28;34.23;;;14.80;;
7029;SDS011;3556;53.500;10.176;2022-12-18T03:12:09;26.73;;;14.10;;
7029;SDS011;3556;53.500;10.176;2022-12-18T03:14:49;31.47;;;14.73;;
7029;SDS011;3556;53.500;10.176;2022-12-18T03:17:35;31.40;;;14.63;;
7029;SDS011;3556;53.500;10.176;2022-12-18T03:20:08;29.03;;;13.80;;
7029;SDS011;3556;53.500;10.176;2022-12-18T03:22:39;27.70;;;14.67;;
7029;SDS011;3556;53.500;10.176;2022-12-18T03:25:08;29.40;;;13.20;;
7029;SDS011;3556;53.500;10.176;2022-12-18T03:27:39;27.58;;;14.38;;
7029;SDS011;3556;53.500;10.176;2022-12-18T03:30:10;36.97;;;16.20;;
7029;SDS011;3556;53.500;10.176;2022-12-18T03:32:42;34.80;;;14.70;;
7029;SDS011;3556;53.500;10.176;2022-12-18T03:35:19;28.77;;;15.40;;
7029;SDS011;3556;53.500;10.176;2022-12-18T03:37:49;28.20;;;14.90;;
7029;SDS011;3556;53.500;10.176;2022-12-18T03:40:15;27.67;;;14.03;;
7029;SDS011;3556;53.500;10.176;2022-12-18T03:42:44;30.80;;;14.37;;
7029;SDS011;3556;53.500;10.176;2022-12-18T03:47:59;28.57;;;14.43;;
7029;SDS011;3556;53.500;10.176;2022-12-18T03:50:33;23.30;;;13.50;;
7029;SDS011;3556;53.500;10.176;2022-12-18T03:53:14;25.80;;;13.73;;
7029;SDS011;3556;53.500;10.176;2022-12-18T03:55:57;31.37;;;14.70;;
7029;SDS011;3556;53.500;10.176;2022-12-18T03:58:25;31.07;;;14.17;;
7029;SDS011;3556;53.500;10.176;2022-12-18T04:00:52;36.00;;;14.40;;
7029;SDS011;3556;53.500;10.176;2022-12-18T04:03:21;44.03;;;15.02;;
7029;SDS011;3556;53.500;10.176;2022-12-18T04:05:49;33.27;;;14.47;;
7029;SDS011;3556;53.500;10.176;2022-12-18T04:08:19;29.98;;;15.18;;
7029;SDS011;3556;53.500;10.176;2022-12-18T04:10:46;27.77;;;14.88;;
7029;SDS011;3556;53.500;10.176;2022-12-18T04:13:12;28.50;;;14.00;;
7029;SDS011;3556;53.500;10.176;2022-12-18T04:15:37;32.63;;;14.53;;
7029;SDS011;3556;53.500;10.176;2022-12-18T04:18:04;33.47;;;14.90;;
7029;SDS011;3556;53.500;10.176;2022-12-18T04:20:30;27.90;;;14.97;;
7029;SDS011;3556;53.500;10.176;2022-12-18T04:22:55;34.13;;;15.20;;
7029;SDS011;3556;53.500;10.176;2022-12-18T04:25:21;35.07;;;15.53;;
7029;SDS011;3556;53.500;10.176;2022-12-18T04:27:46;31.70;;;15.40;;
7029;SDS011;3556;53.500;10.176;2022-12-18T04:30:12;31.87;;;15.60;;
7029;SDS011;3556;53.500;10.176;2022-12-18T04:32:38;36.63;;;16.40;;
7029;SDS011;3556;53.500;10.176;2022-12-18T04:35:03;38.50;;;16.60;;
7029;SDS011;3556;53.500;10.176;2022-12-18T04:37:31;39.47;;;14.83;;
7029;SDS011;3556;53.500;10.176;2022-12-18T04:39:57;38.60;;;16.80;;
7029;SDS011;3556;53.500;10.176;2022-12-18T04:42:22;34.00;;;16.70;;
7029;SDS011;3556;53.500;10.176;2022-12-18T04:44:48;37.20;;;16.00;;
7029;SDS011;3556;53.500;10.176;2022-12-18T04:47:14;33.20;;;16.30;;
7029;SDS011;3556;53.500;10.176;2022-12-18T04:49:39;39.00;;;17.30;;
7029;SDS011;3556;53.500;10.176;2022-12-18T04:52:08;30.77;;;15.00;;
7029;SDS011;3556;53.500;10.176;2022-12-18T04:54:34;38.00;;;16.80;;
7029;SDS011;3556;53.500;10.176;2022-12-18T04:57:00;34.13;;;17.43;;
7029;SDS011;3556;53.500;10.176;2022-12-18T04:59:25;35.87;;;17.13;;
7029;SDS011;3556;53.500;10.176;2022-12-18T05:01:51;35.47;;;15.87;;
7029;SDS011;3556;53.500;10.176;2022-12-18T05:04:16;33.17;;;16.87;;
7029;SDS011;3556;53.500;10.176;2022-12-18T05:06:42;45.20;;;18.20;;
7029;SDS011;3556;53.500;10.176;2022-12-18T05:09:08;42.50;;;18.03;;
7029;SDS011;3556;53.500;10.176;2022-12-18T05:11:36;35.90;;;17.00;;
7029;SDS011;3556;53.500;10.176;2022-12-18T05:14:02;40.00;;;18.10;;
7029;SDS011;3556;53.500;10.176;2022-12-18T05:16:27;41.53;;;17.70;;
7029;SDS011;3556;53.500;10.176;2022-12-18T05:18:53;44.73;;;17.83;;
7029;SDS011;3556;53.500;10.176;2022-12-18T05:21:18;39.13;;;17.67;;
7029;SDS011;3556;53.500;10.176;2022-12-18T05:23:44;41.20;;;17.60;;
7029;SDS011;3556;53.500;10.176;2022-12-18T05:26:11;41.90;;;17.70;;
7029;SDS011;3556;53.500;10.176;2022-12-18T05:28:41;39.83;;;19.20;;
7029;SDS011;3556;53.500;10.176;2022-12-18T05:31:06;40.03;;;17.70;;
7029;SDS011;3556;53.500;10.176;2022-12-18T05:33:33;36.57;;;17.47;;
7029;SDS011;3556;53.500;10.176;2022-12-18T05:36:03;36.80;;;17.20;;
7029;SDS011;3556;53.500;10.176;2022-12-18T05:38:31;41.67;;;19.10;;
7029;SDS011;3556;53.500;10.176;2022-12-18T05:40:58;39.00;;;17.27;;
7029;SDS011;3556;53.500;10.176;2022-12-18T05:43:24;31.60;;;16.20;;
7029;SDS011;3556;53.500;10.176;2022-12-18T05:45:51;41.53;;;18.27;;
7029;SDS011;3556;53.500;10.176;2022-12-18T05:48:17;43.80;;;18.63;;
7029;SDS011;3556;53.500;10.176;2022-12-18T05:50:44;42.60;;;18.13;;
7029;SDS011;3556;53.500;10.176;2022-12-18T05:53:11;36.63;;;18.13;;
7029;SDS011;3556;53.500;10.176;2022-12-18T05:55:38;44.33;;;18.43;;
7029;SDS011;3556;53.500;10.176;2022-12-18T05:58:05;38.93;;;17.37;;
7029;SDS011;3556;53.500;10.176;2022-12-18T06:00:34;37.57;;;17.13;;
7029;SDS011;3556;53.500;10.176;2022-12-18T06:03:01;38.40;;;18.20;;
7029;SDS011;3556;53.500;10.176;2022-12-18T06:05:27;46.17;;;19.07;;
7029;SDS011;3556;53.500;10.176;2022-12-18T06:07:52;41.40;;;18.17;;
7029;SDS011;3556;53.500;10.176;2022-12-18T06:10:18;37.97;;;17.33;;
7029;SDS011;3556;53.500;10.176;2022-12-18T06:12:44;37.90;;;17.00;;
7029;SDS011;3556;53.500;10.176;2022-12-18T06:15:10;42.30;;;18.77;;
7029;SDS011;3556;53.500;10.176;2022-12-18T06:17:36;45.17;;;19.23;;
7029;SDS011;3556;53.500;10.176;2022-12-18T06:20:02;44.20;;;18.60;;
7029;SDS011;3556;53.500;10.176;2022-12-18T06:22:30;46.30;;;19.30;;
7029;SDS011;3556;53.500;10.176;2022-12-18T06:24:57;36.17;;;17.77;;
7029;SDS011;3556;53.500;10.176;2022-12-18T06:27:24;43.50;;;19.83;;
7029;SDS011;3556;53.500;10.176;2022-12-18T06:29:49;41.10;;;18.60;;
7029;SDS011;3556;53.500;10.176;2022-12-18T06:32:15;46.20;;;20.23;;
7029;SDS011;3556;53.500;10.176;2022-12-18T06:34:41;39.80;;;18.63;;
7029;SDS011;3556;53.500;10.176;2022-12-18T06:37:07;46.23;;;18.37;;
7029;SDS011;3556;53.500;10.176;2022-12-18T06:39:32;39.93;;;18.80;;
7029;SDS011;3556;53.500;10.176;2022-12-18T06:41:58;43.83;;;18.37;;
7029;SDS011;3556;53.500;10.176;2022-12-18T06:44:24;42.50;;;18.40;;
7029;SDS011;3556;53.500;10.176;2022-12-18T06:46:49;47.83;;;18.20;;
7029;SDS011;3556;53.500;10.176;2022-12-18T06:49:15;39.90;;;19.30;;
7029;SDS011;3556;53.500;10.176;2022-12-18T06:51:41;41.13;;;18.37;;
7029;SDS011;3556;53.500;10.176;2022-12-18T06:54:07;43.97;;;18.88;;
7029;SDS011;3556;53.500;10.176;2022-12-18T06:56:33;55.80;;;19.77;;
7029;SDS011;3556;53.500;10.176;2022-12-18T06:58:58;41.93;;;18.73;;
7029;SDS011;3556;53.500;10.176;2022-12-18T07:01:24;50.47;;;20.00;;
7029;SDS011;3556;53.500;10.176;2022-12-18T07:03:53;43.40;;;19.30;;
7029;SDS011;3556;53.500;10.176;2022-12-18T07:06:21;44.47;;;18.47;;
7029;SDS011;3556;53.500;10.176;2022-12-18T07:08:49;46.67;;;19.83;;
7029;SDS011;3556;53.500;10.176;2022-12-18T07:11:15;47.47;;;19.70;;
7029;SDS011;3556;53.500;10.176;2022-12-18T07:13:42;39.78;;;19.05;;
7029;SDS011;3556;53.500;10.176;2022-12-18T07:16:16;47.83;;;18.92;;
7029;SDS011;3556;53.500;10.176;2022-12-18T07:18:43;45.95;;;19.15;;
7029;SDS011;3556;53.500;10.176;2022-12-18T07:21:13;52.67;;;19.70;;
7029;SDS011;3556;53.500;10.176;2022-12-18T07:23:40;47.05;;;20.10;;
7029;SDS011;3556;53.500;10.176;2022-12-18T07:26:07;47.47;;;20.33;;
7029;SDS011;3556;53.500;10.176;2022-12-18T07:28:35;49.83;;;19.40;;
7029;SDS011;3556;53.500;10.176;2022-12-18T07:31:02;46.28;;;19.38;;
7029;SDS011;3556;53.500;10.176;2022-12-18T07:33:33;40.60;;;18.63;;
7029;SDS011;3556;53.500;10.176;2022-12-18T07:36:00;52.00;;;20.65;;
7029;SDS011;3556;53.500;10.176;2022-12-18T07:38:26;44.60;;;19.55;;
7029;SDS011;3556;53.500;10.176;2022-12-18T07:40:52;46.87;;;19.83;;
7029;SDS011;3556;53.500;10.176;2022-12-18T07:43:17;44.80;;;18.80;;
7029;SDS011;3556;53.500;10.176;2022-12-18T07:45:43;44.50;;;19.03;;
7029;SDS011;3556;53.500;10.176;2022-12-18T07:48:09;41.67;;;18.43;;
7029;SDS011;3556;53.500;10.176;2022-12-18T07:50:35;42.90;;;20.03;;
7029;SDS011;3556;53.500;10.176;2022-12-18T07:53:01;46.95;;;19.73;;
7029;SDS011;3556;53.500;10.176;2022-12-18T07:55:29;42.33;;;18.90;;
7029;SDS011;3556;53.500;10.176;2022-12-18T07:57:56;48.90;;;20.40;;
7029;SDS011;3556;53.500;10.176;2022-12-18T08:00:21;48.77;;;20.50;;
7029;SDS011;3556;53.500;10.176;2022-12-18T08:02:47;47.27;;;18.93;;
7029;SDS011;3556;53.500;10.176;2022-12-18T08:05:13;42.27;;;18.40;;
7029;SDS011;3556;53.500;10.176;2022-12-18T08:07:39;44.03;;;19.10;;
7029;SDS011;3556;53.500;10.176;2022-12-18T08:10:05;42.07;;;19.77;;
7029;SDS011;3556;53.500;10.176;2022-12-18T08:12:31;43.80;;;19.20;;
7029;SDS011;3556;53.500;10.176;2022-12-18T08:14:57;41.77;;;19.17;;
7029;SDS011;3556;53.500;10.176;2022-12-18T08:17:22;48.57;;;19.93;;
7029;SDS011;3556;53.500;10.176;2022-12-18T08:19:48;44.03;;;19.77;;
7029;SDS011;3556;53.500;10.176;2022-12-18T08:22:14;51.07;;;19.37;;
7029;SDS011;3556;53.500;10.176;2022-12-18T08:24:39;48.53;;;19.30;;
7029;SDS011;3556;53.500;10.176;2022-12-18T08:27:05;55.63;;;19.30;;
7029;SDS011;3556;53.500;10.176;2022-12-18T08:29:31;48.70;;;19.10;;
7029;SDS011;3556;53.500;10.176;2022-12-18T08:31:57;44.37;;;18.07;;
7029;SDS011;3556;53.500;10.176;2022-12-18T08:34:22;41.33;;;18.50;;
7029;SDS011;3556;53.500;10.176;2022-12-18T08:36:48;44.43;;;19.77;;
7029;SDS011;3556;53.500;10.176;2022-12-18T08:39:13;42.63;;;18.33;;
7029;SDS011;3556;53.500;10.176;2022-12-18T08:41:39;46.97;;;19.17;;
7029;SDS011;3556;53.500;10.176;2022-12-18T08:44:06;45.67;;;20.10;;
7029;SDS011;3556;53.500;10.176;2022-12-18T08:46:51;50.38;;;20.15;;
7029;SDS011;3556;53.500;10.176;2022-12-18T08:49:17;49.77;;;18.90;;
7029;SDS011;3556;53.500;10.176;2022-12-18T08:51:43;40.83;;;18.92;;
7029;SDS011;3556;53.500;10.176;2022-12-18T08:54:10;50.13;;;19.30;;
7029;SDS011;3556;53.500;10.176;2022-12-18T08:56:37;48.90;;;20.60;;
7029;SDS011;3556;53.500;10.176;2022-12-18T08:59:03;52.00;;;20.63;;
7029;SDS011;3556;53.500;10.176;2022-12-18T09:01:29;40.53;;;18.83;;
7029;SDS011;3556;53.500;10.176;2022-12-18T09:03:55;46.27;;;17.97;;
7029;SDS011;3556;53.500;10.176;2022-12-18T09:06:21;46.97;;;19.27;;
7029;SDS011;3556;53.500;10.176;2022-12-18T09:08:47;41.87;;;17.93;;
7029;SDS011;3556;53.500;10.176;2022-12-18T09:11:15;56.13;;;21.47;;
7029;SDS011;3556;53.500;10.176;2022-12-18T09:13:45;44.80;;;18.47;;
7029;SDS011;3556;53.500;10.176;2022-12-18T09:16:11;47.77;;;19.90;;
7029;SDS011;3556;53.500;10.176;2022-12-18T09:18:37;42.70;;;18.80;;
7029;SDS011;3556;53.500;10.176;2022-12-18T09:21:13;38.53;;;17.67;;
7029;SDS011;3556;53.500;10.176;2022-12-18T09:23:42;45.30;;;18.63;;
7029;SDS011;3556;53.500;10.176;2022-12-18T09:26:08;50.40;;;19.30;;
7029;SDS011;3556;53.500;10.176;2022-12-18T09:28:34;42.23;;;18.20;;
7029;SDS011;3556;53.500;10.176;2022-12-18T09:31:02;45.83;;;19.00;;
7029;SDS011;3556;53.500;10.176;2022-12-18T09:33:30;43.90;;;18.47;;
7029;SDS011;3556;53.500;10.176;2022-12-18T09:35:56;42.97;;;17.97;;
7029;SDS011;3556;53.500;10.176;2022-12-18T09:38:21;41.73;;;18.90;;
7029;SDS011;3556;53.500;10.176;2022-12-18T09:40:49;44.77;;;18.80;;
7029;SDS011;3556;53.500;10.176;2022-12-18T09:43:18;49.60;;;18.50;;
7029;SDS011;3556;53.500;10.176;2022-12-18T09:46:01;43.37;;;18.03;;
7029;SDS011;3556;53.500;10.176;2022-12-18T09:48:32;49.20;;;20.37;;
7029;SDS011;3556;53.500;10.176;2022-12-18T09:51:03;39.90;;;17.77;;
7029;SDS011;3556;53.500;10.176;2022-12-18T09:53:37;45.57;;;19.10;;
7029;SDS011;3556;53.500;10.176;2022-12-18T09:56:05;40.37;;;18.17;;
7029;SDS011;3556;53.500;10.176;2022-12-18T09:58:36;39.73;;;17.27;;
7029;SDS011;3556;53.500;10.176;2022-12-18T10:01:13;45.97;;;19.47;;
7029;SDS011;3556;53.500;10.176;2022-12-18T10:03:42;43.30;;;18.90;;
7029;SDS011;3556;53.500;10.176;2022-12-18T10:06:15;45.53;;;19.90;;
7029;SDS011;3556;53.500;10.176;2022-12-18T10:16:52;41.33;;;17.83;;
7029;SDS011;3556;53.500;10.176;2022-12-18T10:22:33;41.13;;;18.50;;
7029;SDS011;3556;53.500;10.176;2022-12-18T10:27:57;45.10;;;19.17;;
7029;SDS011;3556;53.500;10.176;2022-12-18T10:30:29;44.77;;;17.97;;
7029;SDS011;3556;53.500;10.176;2022-12-18T10:32:58;45.77;;;18.43;;
7029;SDS011;3556;53.500;10.176;2022-12-18T10:35:27;48.37;;;19.67;;
7029;SDS011;3556;53.500;10.176;2022-12-18T10:38:03;44.13;;;19.23;;
7029;SDS011;3556;53.500;10.176;2022-12-18T10:40:32;46.37;;;19.83;;
7029;SDS011;3556;53.500;10.176;2022-12-18T10:43:12;39.90;;;18.13;;
7029;SDS011;3556;53.500;10.176;2022-12-18T10:45:39;41.57;;;18.83;;
7029;SDS011;3556;53.500;10.176;2022-12-18T10:48:17;37.33;;;17.80;;
7029;SDS011;3556;53.500;10.176;2022-12-18T10:50:46;40.23;;;19.17;;
7029;SDS011;3556;53.500;10.176;2022-12-18T10:53:18;45.43;;;19.03;;
7029;SDS011;3556;53.500;10.176;2022-12-18T10:55:46;40.23;;;17.80;;
7029;SDS011;3556;53.500;10.176;2022-12-18T10:58:13;44.17;;;19.50;;
7029;SDS011;3556;53.500;10.176;2022-12-18T11:00:44;40.23;;;18.37;;
7029;SDS011;3556;53.500;10.176;2022-12-18T11:03:29;38.67;;;18.07;;
7029;SDS011;3556;53.500;10.176;2022-12-18T11:06:09;44.27;;;19.37;;
7029;SDS011;3556;53.500;10.176;2022-12-18T11:08:38;41.27;;;18.97;;
7029;SDS011;3556;53.500;10.176;2022-12-18T11:11:07;50.20;;;20.10;;
7029;SDS011;3556;53.500;10.176;2022-12-18T11:13:42;40.50;;;19.03;;
7029;SDS011;3556;53.500;10.176;2022-12-18T11:16:26;42.03;;;18.13;;
7029;SDS011;3556;53.500;10.176;2022-12-18T11:18:53;51.83;;;20.67;;
7029;SDS011;3556;53.500;10.176;2022-12-18T11:21:20;48.90;;;23.00;;
7029;SDS011;3556;53.500;10.176;2022-12-18T11:23:49;47.00;;;20.93;;
7029;SDS011;3556;53.500;10.176;2022-12-18T11:26:16;51.17;;;21.67;;
7029;SDS011;3556;53.500;10.176;2022-12-18T11:28:49;50.70;;;22.50;;
7029;SDS011;3556;53.500;10.176;2022-12-18T11:36:56;47.87;;;20.13;;
7029;SDS011;3556;53.500;10.176;2022-12-18T11:39:30;46.93;;;20.33;;
7029;SDS011;3556;53.500;10.176;2022-12-18T11:42:12;42.17;;;19.17;;
7029;SDS011;3556;53.500;10.176;2022-12-18T11:49:50;45.63;;;19.47;;
7029;SDS011;3556;53.500;10.176;2022-12-18T11:52:18;42.90;;;18.57;;
7029;SDS011;3556;53.500;10.176;2022-12-18T11:55:12;42.40;;;18.33;;
7029;SDS011;3556;53.500;10.176;2022-12-18T12:00:24;50.33;;;20.40;;
7029;SDS011;3556;53.500;10.176;2022-12-18T12:08:25;47.97;;;19.83;;
7029;SDS011;3556;53.500;10.176;2022-12-18T12:11:19;43.17;;;19.73;;
7029;SDS011;3556;53.500;10.176;2022-12-18T12:22:24;56.50;;;20.43;;
7029;SDS011;3556;53.500;10.176;2022-12-18T12:28:03;50.70;;;21.07;;
7029;SDS011;3556;53.500;10.176;2022-12-18T12:41:04;39.73;;;17.70;;
7029;SDS011;3556;53.500;10.176;2022-12-18T12:43:54;37.00;;;16.93;;
7029;SDS011;3556;53.500;10.176;2022-12-18T12:46:23;38.53;;;17.67;;
7029;SDS011;3556;53.500;10.176;2022-12-18T12:49:03;38.53;;;16.27;;
7029;SDS011;3556;53.500;10.176;2022-12-18T12:51:39;41.97;;;18.50;;
7029;SDS011;3556;53.500;10.176;2022-12-18T12:54:15;40.53;;;17.07;;
7029;SDS011;3556;53.500;10.176;2022-12-18T12:56:59;40.27;;;16.47;;
7029;SDS011;3556;53.500;10.176;2022-12-18T12:59:59;40.23;;;15.90;;
7029;SDS011;3556;53.500;10.176;2022-12-18T13:07:58;43.40;;;18.40;;
7029;SDS011;3556;53.500;10.176;2022-12-18T13:10:31;40.47;;;17.23;;
7029;SDS011;3556;53.500;10.176;2022-12-18T13:13:15;35.33;;;15.13;;
7029;SDS011;3556;53.500;10.176;2022-12-18T13:15:45;43.40;;;16.60;;
7029;SDS011;3556;53.500;10.176;2022-12-18T13:18:29;36.80;;;14.87;;
7029;SDS011;3556;53.500;10.176;2022-12-18T13:31:11;37.43;;;15.87;;
7029;SDS011;3556;53.500;10.176;2022-12-18T13:34:11;37.00;;;14.70;;
7029;SDS011;3556;53.500;10.176;2022-12-18T13:36:44;38.53;;;16.67;;
7029;SDS011;3556;53.500;10.176;2022-12-18T13:39:15;35.53;;;15.30;;
7029;SDS011;3556;53.500;10.176;2022-12-18T13:41:48;32.50;;;14.30;;
7029;SDS011;3556;53.500;10.176;2022-12-18T13:44:24;41.33;;;14.80;;
7029;SDS011;3556;53.500;10.176;2022-12-18T13:46:56;33.97;;;14.87;;
7029;SDS011;3556;53.500;10.176;2022-12-18T13:49:40;32.07;;;13.47;;
7029;SDS011;3556;53.500;10.176;2022-12-18T13:52:15;42.93;;;15.93;;
7029;SDS011;3556;53.500;10.176;2022-12-18T13:54:59;38.17;;;15.10;;
7029;SDS011;3556;53.500;10.176;2022-12-18T13:57:33;39.50;;;15.73;;
7029;SDS011;3556;53.500;10.176;2022-12-18T14:00:16;39.40;;;15.43;;
7029;SDS011;3556;53.500;10.176;2022-12-18T14:02:56;37.87;;;15.23;;
7029;SDS011;3556;53.500;10.176;2022-12-18T14:05:32;43.80;;;16.33;;
7029;SDS011;3556;53.500;10.176;2022-12-18T14:08:03;37.60;;;15.73;;
7029;SDS011;3556;53.500;10.176;2022-12-18T14:10:31;45.63;;;16.30;;
7029;SDS011;3556;53.500;10.176;2022-12-18T14:12:57;38.33;;;15.97;;
7029;SDS011;3556;53.500;10.176;2022-12-18T14:15:43;44.97;;;16.90;;
7029;SDS011;3556;53.500;10.176;2022-12-18T14:20:59;50.70;;;19.10;;
7029;SDS011;3556;53.500;10.176;2022-12-18T14:23:39;52.57;;;19.20;;
7029;SDS011;3556;53.500;10.176;2022-12-18T14:26:48;42.80;;;18.27;;
7029;SDS011;3556;53.500;10.176;2022-12-18T14:28:59;46.50;;;17.47;;
7029;SDS011;3556;53.500;10.176;2022-12-18T14:31:42;52.40;;;20.60;;
7029;SDS011;3556;53.500;10.176;2022-12-18T14:34:14;53.50;;;19.80;;
7029;SDS011;3556;53.500;10.176;2022-12-18T14:36:51;44.23;;;18.87;;
7029;SDS011;3556;53.500;10.176;2022-12-18T14:39:18;52.07;;;21.00;;
7029;SDS011;3556;53.500;10.176;2022-12-18T14:41:43;47.73;;;18.23;;
7029;SDS011;3556;53.500;10.176;2022-12-18T14:44:11;48.80;;;19.80;;
7029;SDS011;3556;53.500;10.176;2022-12-18T14:46:47;53.87;;;19.70;;
7029;SDS011;3556;53.500;10.176;2022-12-18T14:51:53;46.37;;;19.07;;
7029;SDS011;3556;53.500;10.176;2022-12-18T14:54:23;59.50;;;19.27;;
7029;SDS011;3556;53.500;10.176;2022-12-18T14:57:24;52.90;;;20.10;;
7029;SDS011;3556;53.500;10.176;2022-12-18T14:59:49;49.87;;;18.23;;
7029;SDS011;3556;53.500;10.176;2022-12-18T15:04:59;49.57;;;17.60;;
7029;SDS011;3556;53.500;10.176;2022-12-18T15:07:45;51.20;;;18.83;;
7029;SDS011;3556;53.500;10.176;2022-12-18T15:10:28;56.73;;;18.97;;
7029;SDS011;3556;53.500;10.176;2022-12-18T15:23:20;52.60;;;19.00;;
7029;SDS011;3556;53.500;10.176;2022-12-18T15:26:00;54.87;;;18.20;;
7029;SDS011;3556;53.500;10.176;2022-12-18T15:28:38;59.40;;;20.63;;
7029;SDS011;3556;53.500;10.176;2022-12-18T15:33:35;53.87;;;20.27;;
7029;SDS011;3556;53.500;10.176;2022-12-18T15:36:08;61.03;;;20.97;;
7029;SDS011;3556;53.500;10.176;2022-12-18T15:38:35;46.77;;;18.03;;
7029;SDS011;3556;53.500;10.176;2022-12-18T15:41:01;49.33;;;17.67;;
7029;SDS011;3556;53.500;10.176;2022-12-18T15:43:30;46.03;;;18.20;;
7029;SDS011;3556;53.500;10.176;2022-12-18T15:46:03;52.33;;;19.37;;
7029;SDS011;3556;53.500;10.176;2022-12-18T15:48:32;50.90;;;17.20;;
7029;SDS011;3556;53.500;10.176;2022-12-18T15:50:59;44.87;;;14.70;;
7029;SDS011;3556;53.500;10.176;2022-12-18T15:53:27;52.10;;;18.40;;
7029;SDS011;3556;53.500;10.176;2022-12-18T15:55:55;43.37;;;16.53;;
7029;SDS011;3556;53.500;10.176;2022-12-18T15:58:39;48.57;;;17.70;;
7029;SDS011;3556;53.500;10.176;2022-12-18T16:01:05;48.10;;;18.10;;
7029;SDS011;3556;53.500;10.176;2022-12-18T16:03:32;44.97;;;15.83;;
7029;SDS011;3556;53.500;10.176;2022-12-18T16:05:58;52.80;;;17.37;;
7029;SDS011;3556;53.500;10.176;2022-12-18T16:08:26;50.43;;;17.27;;
7029;SDS011;3556;53.500;10.176;2022-12-18T16:10:54;50.00;;;18.67;;
7029;SDS011;3556;53.500;10.176;2022-12-18T16:13:20;52.23;;;17.07;;
7029;SDS011;3556;53.500;10.176;2022-12-18T16:15:46;48.87;;;19.53;;
7029;SDS011;3556;53.500;10.176;2022-12-18T16:18:12;51.30;;;17.57;;
7029;SDS011;3556;53.500;10.176;2022-12-18T16:20:37;50.63;;;19.47;;
7029;SDS011;3556;53.500;10.176;2022-12-18T16:23:04;50.43;;;18.57;;
7029;SDS011;3556;53.500;10.176;2022-12-18T16:25:30;52.33;;;19.90;;
7029;SDS011;3556;53.500;10.176;2022-12-18T16:27:56;49.47;;;17.30;;
7029;SDS011;3556;53.500;10.176;2022-12-18T16:30:23;46.37;;;17.80;;
7029;SDS011;3556;53.500;10.176;2022-12-18T16:32:55;44.33;;;18.10;;
7029;SDS011;3556;53.500;10.176;2022-12-18T16:35:24;52.87;;;19.23;;
7029;SDS011;3556;53.500;10.176;2022-12-18T16:37:51;48.97;;;19.80;;
7029;SDS011;3556;53.500;10.176;2022-12-18T16:40:17;50.63;;;18.67;;
7029;SDS011;3556;53.500;10.176;2022-12-18T16:42:44;50.17;;;19.10;;